createdAt,value
2019-04-05T00:00:44.791Z,50.17
2019-04-05T00:05:46.732Z,50.53
2019-04-05T00:10:48.778Z,49.40
2019-04-05T00:15:50.592Z,51.40
2019-04-05T00:20:52.450Z,53.03
2019-04-05T00:25:54.284Z,50.10
2019-04-05T00:30:56.117Z,50.50
2019-04-05T00:35:57.976Z,51.93
2019-04-05T00:41:18.041Z,51.43
2019-04-05T00:46:20.174Z,50.50
2019-04-05T00:51:22.299Z,53.60
2019-04-05T00:56:24.236Z,52.40
2019-04-05T01:01:26.143Z,55.47
2019-04-05T01:06:28.978Z,55.97
2019-04-05T01:11:30.813Z,55.93
2019-04-05T01:16:32.691Z,57.90
2019-04-05T01:21:38.509Z,57.33
2019-04-05T01:26:43.031Z,57.20
2019-04-05T01:31:45.057Z,58.83
2019-04-05T01:36:47.004Z,57.43
2019-04-05T01:41:49.566Z,55.07
2019-04-05T01:46:51.383Z,55.83
2019-04-05T01:51:53.568Z,57.67
2019-04-05T01:56:55.395Z,56.80
2019-04-05T02:01:57.350Z,56.13
2019-04-05T02:07:00.300Z,56.67
2019-04-05T02:12:02.582Z,60.40
2019-04-05T02:17:04.802Z,59.30
2019-04-05T02:22:06.897Z,58.40
2019-04-05T02:27:08.955Z,60.83
2019-04-05T02:32:11.023Z,62.27
2019-04-05T02:37:12.972Z,61.57
2019-04-05T02:42:15.445Z,58.90
2019-04-05T02:47:19.361Z,62.70
2019-04-05T02:52:23.729Z,62.83
2019-04-05T02:57:27.393Z,65.70
2019-04-05T03:02:29.726Z,63.37
2019-04-05T03:07:31.763Z,63.83
2019-04-05T03:12:35.161Z,61.70
2019-04-05T03:17:37.588Z,62.37
2019-04-05T03:22:39.826Z,61.50
2019-04-05T03:27:42.155Z,61.50
2019-04-05T03:32:44.586Z,63.33
2019-04-05T03:37:46.515Z,62.83
2019-04-05T03:42:49.209Z,62.47
2019-04-05T03:47:51.222Z,65.10
2019-04-05T03:52:53.257Z,63.67
2019-04-05T03:57:55.212Z,65.70
2019-04-05T04:02:57.481Z,59.97
2019-04-05T04:07:59.497Z,64.80
2019-04-05T04:13:01.551Z,65.83
2019-04-05T04:18:04.172Z,61.90
2019-04-05T04:23:08.614Z,61.20
2019-04-05T04:28:10.833Z,63.30
2019-04-05T04:33:12.898Z,63.20
2019-04-05T04:38:15.307Z,61.47
2019-04-05T04:43:17.931Z,61.77
2019-04-05T04:48:21.168Z,60.23
2019-04-05T04:53:25.025Z,60.33
2019-04-05T04:58:27.309Z,60.70
2019-04-05T05:03:29.358Z,60.57
2019-04-05T05:08:31.789Z,59.03
2019-04-05T05:13:33.733Z,60.80
2019-04-05T05:18:36.169Z,60.07
2019-04-05T05:23:38.483Z,60.20
2019-04-05T05:28:40.999Z,60.80
2019-04-05T05:33:44.162Z,62.80
2019-04-05T05:38:46.228Z,60.40
2019-04-05T05:43:48.175Z,61.47
2019-04-05T05:48:51.114Z,58.63
2019-04-05T05:53:53.059Z,60.77
2019-04-05T05:58:59.441Z,60.33
2019-04-05T06:04:00.125Z,58.80
2019-04-05T06:09:03.909Z,58.67
2019-04-05T06:14:05.841Z,61.00
2019-04-05T06:19:07.682Z,61.17
2019-04-05T06:24:09.535Z,59.63
2019-04-05T06:29:11.343Z,62.60
2019-04-05T06:34:13.209Z,62.13
2019-04-05T06:39:15.050Z,60.17
2019-04-05T06:44:17.073Z,62.07
2019-04-05T06:49:19.109Z,58.93
2019-04-05T06:54:20.941Z,56.27
2019-04-05T06:59:23.008Z,58.30
2019-04-05T07:04:24.831Z,57.70
2019-04-05T07:09:26.667Z,53.43
2019-04-05T07:14:28.635Z,56.23
2019-04-05T07:19:30.663Z,53.20
2019-04-05T07:24:32.497Z,53.37
2019-04-05T07:29:34.433Z,51.63
2019-04-05T07:34:37.076Z,51.97
2019-04-05T07:39:38.917Z,53.03
2019-04-05T07:44:41.021Z,48.87
2019-04-05T07:49:42.880Z,50.63
2019-04-05T07:54:45.056Z,47.70
2019-04-05T07:59:47.103Z,50.10
2019-04-05T08:04:48.884Z,50.43
2019-04-05T08:09:51.251Z,50.17
2019-04-05T08:14:54.145Z,47.47
2019-04-05T08:19:55.951Z,49.53
2019-04-05T08:24:57.802Z,49.13
2019-04-05T08:29:59.607Z,48.67
2019-04-05T08:35:01.446Z,46.33
2019-04-05T08:40:04.504Z,49.03
2019-04-05T08:45:06.558Z,46.90
2019-04-05T08:50:08.682Z,47.10
2019-04-05T08:55:10.945Z,47.90
2019-04-05T09:00:14.606Z,49.23
2019-04-05T09:05:17.774Z,47.77
2019-04-05T09:10:19.748Z,49.53
2019-04-05T09:15:21.746Z,49.10
2019-04-05T09:20:24.397Z,48.30
2019-04-05T09:25:26.227Z,49.27
2019-04-05T09:30:28.043Z,46.30
2019-04-05T09:35:30.103Z,47.30
2019-04-05T09:40:32.045Z,48.47
2019-04-05T09:45:35.206Z,46.33
2019-04-05T09:50:37.061Z,47.57
2019-04-05T09:55:39.201Z,47.43
2019-04-05T10:00:41.176Z,47.53
2019-04-05T10:05:45.552Z,47.27
2019-04-05T10:10:47.598Z,45.13
2019-04-05T10:15:49.741Z,45.63
2019-04-05T10:20:51.576Z,46.50
2019-04-05T10:25:53.457Z,46.10
2019-04-05T10:30:55.301Z,45.97
2019-04-05T10:35:57.249Z,45.53
2019-04-05T10:40:59.085Z,46.13
2019-04-05T10:46:01.137Z,45.70
2019-04-05T10:51:03.697Z,46.50
2019-04-05T10:56:05.621Z,46.93
2019-04-05T11:01:07.886Z,46.37
2019-04-05T11:06:09.818Z,47.90
2019-04-05T11:11:11.656Z,44.33
2019-04-05T11:16:13.482Z,44.53
2019-04-05T11:21:16.278Z,44.57
2019-04-05T11:26:19.179Z,44.80
2019-04-05T11:31:21.222Z,45.77
2019-04-05T11:36:23.918Z,45.60
2019-04-05T11:41:27.060Z,46.27
2019-04-05T11:46:30.430Z,44.23
2019-04-05T11:51:32.427Z,47.77
2019-04-05T11:56:34.361Z,47.83
2019-04-05T12:01:53.769Z,47.20
2019-04-05T12:06:55.626Z,44.90
2019-04-05T12:11:58.067Z,44.97
2019-04-05T12:17:00.057Z,45.13
2019-04-05T12:22:04.383Z,46.60
2019-04-05T12:27:05.783Z,44.73
2019-04-05T12:32:07.702Z,43.63
2019-04-05T12:37:09.503Z,41.70
2019-04-05T12:42:12.256Z,40.40
2019-04-05T12:47:15.780Z,41.27
2019-04-05T12:52:22.894Z,42.97
2019-04-05T12:57:22.086Z,42.30
2019-04-05T13:02:33.259Z,41.40
2019-04-05T13:07:27.775Z,40.43
2019-04-05T13:12:29.668Z,39.43
2019-04-05T13:17:31.719Z,39.97
2019-04-05T13:22:33.670Z,42.33
2019-04-05T13:27:35.497Z,40.53
2019-04-05T13:32:37.316Z,45.13
2019-04-05T13:37:39.140Z,45.67
2019-04-05T13:42:40.994Z,42.90
2019-04-05T13:47:42.832Z,41.00
2019-04-05T13:52:44.710Z,41.83
2019-04-05T13:57:46.643Z,43.20
2019-04-05T14:02:50.750Z,43.43
2019-04-05T14:07:54.668Z,40.93
2019-04-05T14:12:56.657Z,43.63
2019-04-05T14:17:59.815Z,42.57
2019-04-05T14:23:01.645Z,41.10
2019-04-05T14:28:04.555Z,41.90
2019-04-05T14:33:07.239Z,42.67
2019-04-05T14:38:11.624Z,39.97
2019-04-05T14:43:15.014Z,41.00
2019-04-05T14:48:17.690Z,43.13
2019-04-05T14:53:19.511Z,40.43
2019-04-05T14:58:21.368Z,42.33
2019-04-05T15:03:23.185Z,41.30
2019-04-05T15:08:25.037Z,42.50
2019-04-05T15:13:26.878Z,42.80
2019-04-05T15:18:28.830Z,41.37
2019-04-05T15:23:30.665Z,40.33
2019-04-05T15:28:32.493Z,41.00
2019-04-05T15:33:34.341Z,41.33
2019-04-05T15:38:36.179Z,38.80
2019-04-05T15:43:38.006Z,41.93
2019-04-05T15:48:39.878Z,41.03
2019-04-05T15:53:41.710Z,41.73
2019-04-05T15:58:43.679Z,40.60
2019-04-05T16:03:45.628Z,41.30
2019-04-05T16:08:47.565Z,43.43
2019-04-05T16:13:50.287Z,45.93
2019-04-05T16:18:52.138Z,46.60
2019-04-05T16:23:53.979Z,49.60
2019-04-05T16:28:55.779Z,51.10
2019-04-05T16:33:57.693Z,49.33
2019-04-05T16:38:59.519Z,48.13
2019-04-05T16:44:01.878Z,48.33
2019-04-05T16:49:03.726Z,48.47
2019-04-05T16:54:05.557Z,44.43
2019-04-05T16:59:07.641Z,45.73
2019-04-05T17:04:09.447Z,43.33
2019-04-05T17:09:11.276Z,45.33
2019-04-05T17:14:13.108Z,44.57
2019-04-05T17:19:14.965Z,44.97
2019-04-05T17:24:16.869Z,44.63
2019-04-05T17:29:18.694Z,42.80
2019-04-05T17:34:20.535Z,45.57
2019-04-05T17:39:22.976Z,45.50
2019-04-05T17:44:24.880Z,44.93
2019-04-05T17:49:27.052Z,48.70
2019-04-05T17:54:29.074Z,49.47
2019-04-05T17:59:31.264Z,50.53
2019-04-05T18:04:33.094Z,45.80
2019-04-05T18:09:35.031Z,50.70
2019-04-05T18:14:36.873Z,48.17
2019-04-05T18:19:38.831Z,47.70
2019-04-05T18:24:40.678Z,45.97
2019-04-05T18:29:42.502Z,47.93
2019-04-05T18:34:45.431Z,45.67
2019-04-05T18:39:47.366Z,47.20
2019-04-05T18:44:49.406Z,46.53
2019-04-05T18:50:02.467Z,47.50
2019-04-05T18:54:55.094Z,47.67
2019-04-05T18:59:59.987Z,50.07
2019-04-05T19:05:02.062Z,46.93
2019-04-05T19:10:05.406Z,46.30
2019-04-05T19:15:07.544Z,46.93
2019-04-05T19:20:09.788Z,45.40
2019-04-05T19:25:12.414Z,49.33
2019-04-05T19:50:31.145Z,46.70
2019-04-05T19:55:32.958Z,46.83
2019-04-05T20:00:34.835Z,45.90
2019-04-05T20:05:36.651Z,44.03
2019-04-05T20:10:38.481Z,43.37
2019-04-05T20:15:40.401Z,45.37
2019-04-05T20:20:42.245Z,48.70
2019-04-05T20:25:46.097Z,46.33
2019-04-05T20:30:47.907Z,45.30
2019-04-05T20:35:49.750Z,46.70
2019-04-05T20:40:51.744Z,44.50
2019-04-05T20:45:53.791Z,47.50
2019-04-05T20:50:55.711Z,45.50
2019-04-05T20:55:57.560Z,45.43
2019-04-05T21:00:59.578Z,49.73
2019-04-05T21:06:01.797Z,47.10
2019-04-05T21:11:04.788Z,48.87
2019-04-05T21:16:06.625Z,46.67
2019-04-05T21:21:08.517Z,45.43
2019-04-05T21:26:11.293Z,48.87
2019-04-05T21:31:13.242Z,46.50
2019-04-05T21:36:16.059Z,47.87
2019-04-05T21:41:18.004Z,46.23
2019-04-05T21:46:19.842Z,46.83
2019-04-05T21:51:21.684Z,48.80
2019-04-05T21:56:23.542Z,48.47
2019-04-05T22:01:26.389Z,49.23
2019-04-05T22:06:30.115Z,50.80
2019-04-05T22:11:32.128Z,47.97
2019-04-05T22:16:33.996Z,48.73
2019-04-05T22:21:35.862Z,48.63
2019-04-05T22:26:37.685Z,49.57
2019-04-05T22:31:39.522Z,48.53
2019-04-05T22:36:41.327Z,48.63
2019-04-05T22:41:43.152Z,49.70
2019-04-05T22:46:45.000Z,46.03
2019-04-05T22:51:46.853Z,49.27
2019-04-05T22:56:48.692Z,47.63
2019-04-05T23:01:50.534Z,45.83
2019-04-05T23:06:52.441Z,48.03
2019-04-05T23:11:54.250Z,48.30
2019-04-05T23:16:56.096Z,47.50
2019-04-05T23:21:57.934Z,45.97
2019-04-05T23:26:59.748Z,46.90
2019-04-05T23:32:01.596Z,47.10
2019-04-05T23:37:03.526Z,46.63
2019-04-05T23:42:05.448Z,47.97
2019-04-05T23:47:07.498Z,50.37
2019-04-05T23:52:09.844Z,49.87
2019-04-05T23:57:11.692Z,50.37
